Love Boat — OT3861 — position and weather

sailwx.info

Track history (hours):
 
Tides and Currents Weather Stations Pressure Air Temp Water Temp Dewpoint Dewpoint Depression Visibility Wind Speed Wind Dir Waves Ship Positions

Love Boat

Last reported at 2017-Apr-23 01:33 UTC. Time now 2017-Apr-24 19:23 UTC.
Position N 50°41' E 007°11'.

Length 110 m; draft 2 m.

Type: Ship. MMSI: 205386190.

Date/timePositionNaut miles runAvg speedWind from/ knotsBaromVisibWave heightAir tempDewpointWater temp
2017-Apr-23 01:33N 50°41' E 007°11'0 4.4
2017-Apr-23 01:29N 50°41' E 007°11'3 4.4
2017-Apr-23 00:53N 50°43' E 007°08'1 3.8
2017-Apr-23 00:30N 50°44' E 007°07'2 3.7
2017-Apr-23 00:00N 50°46' E 007°05'2 4.5
2017-Apr-22 23:30N 50°47' E 007°02'2 3.8
2017-Apr-22 22:58N 50°49' E 007°02'2 3.5
2017-Apr-22 22:18N 50°51' E 006°59'1 4.3
2017-Apr-22 22:00N 50°52' E 007°01'2 4.1
2017-Apr-22 21:27N 50°53' E 007°03'2 4.0
2017-Apr-22 20:57N 50°54' E 006°60'2 4.0
2017-Apr-22 20:26N 50°56' E 006°58'2 4.4
2017-Apr-22 19:55N 50°58' E 006°60'13 3.4
2017-Apr-22 16:05N 51°10' E 006°51'2 4.2
2017-Apr-22 15:37N 51°09' E 006°49'1 5.4
2017-Apr-22 15:31N 51°09' E 006°48'2 4.5
2017-Apr-22 15:01N 51°11' E 006°48'2 4.7
2017-Apr-22 14:30N 51°11' E 006°44'3 2.9
2017-Apr-22 13:29N 51°14' E 006°46'8 3.6
2017-Apr-22 11:16N 51°21' E 006°40'2 3.6
2017-Apr-22 10:49N 51°22' E 006°41'1 4.7
2017-Apr-22 10:30N 51°23' E 006°43'2 4.5
2017-Apr-22 10:00N 51°25' E 006°45'2 4.5
2017-Apr-22 09:31N 51°27' E 006°43'2 3.7
2017-Apr-22 09:01N 51°28' E 006°42'2 3.2
2017-Apr-22 08:31N 51°30' E 006°43'2 3.5
2017-Apr-22 08:01N 51°31' E 006°42'2 4.2
2017-Apr-22 07:30N 51°33' E 006°41'4 3.3
2017-Apr-22 06:14N 51°36' E 006°36'3 4.6
2017-Apr-22 05:41N 51°39' E 006°36'1 5.0
2017-Apr-22 05:30N 51°39' E 006°35'3 5.0
2017-Apr-22 04:56N 51°40' E 006°31'3 4.6
2017-Apr-22 04:21N 51°42' E 006°28'2 4.9
2017-Apr-22 04:01N 51°43' E 006°26'2 4.1
2017-Apr-22 03:30N 51°45' E 006°25'2 5.0
2017-Apr-22 03:01N 51°45' E 006°21'3 5.5
2017-Apr-22 02:31N 51°48' E 006°19'3 5.9
2017-Apr-22 02:01N 51°49' E 006°15'3 5.2
2017-Apr-22 01:30N 51°50' E 006°11'3 5.3
2017-Apr-22 01:00N 51°51' E 006°07'3 6.0
2017-Apr-22 00:31N 51°52' E 006°03'2 4.7
2017-Apr-22 00:01N 51°52' E 005°59'2 4.2
2017-Apr-21 23:31N 51°52' E 005°56'3 5.1
2017-Apr-21 23:01N 51°51' E 005°52'3 5.2
2017-Apr-21 22:31N 51°52' E 005°49'3 5.7
2017-Apr-21 22:01N 51°53' E 005°44'3 5.6
2017-Apr-21 21:31N 51°54' E 005°40'3 5.7
2017-Apr-21 21:00N 51°54' E 005°35'3 5.5
2017-Apr-21 20:31N 51°53' E 005°31'17 5.1
2017-Apr-21 17:14N 51°50' E 005°05'2 6.9
2017-Apr-21 17:01N 51°49' E 005°02'4 7.7
2017-Apr-21 16:31N 51°50' E 004°56'2 4.9
2017-Apr-21 16:00N 51°49' E 004°53'3 6.9
2017-Apr-21 15:31N 51°48' E 004°47'4 7.7
2017-Apr-21 15:01N 51°45' E 004°44'3 6.9
2017-Apr-21 14:30N 51°43' E 004°39'9 6.1
2017-Apr-21 13:04N 51°41' E 004°25'16 6.1
2017-Apr-21 10:29N 51°27' E 004°14'3 3.7
2017-Apr-21 09:46N 51°25' E 004°14'5 7.0
2017-Apr-21 09:00N 51°20' E 004°18'0 0.2
2017-Apr-21 08:22N 51°20' E 004°19'0 0.0
2017-Apr-21 07:39N 51°20' E 004°19'0 0.0
2017-Apr-21 07:29N 51°20' E 004°19'0 0.0
2017-Apr-21 05:32N 51°20' E 004°18'0 0.1
2017-Apr-21 05:27N 51°20' E 004°18'0 0.0
2017-Apr-21 04:54N 51°20' E 004°18'0 0.0
2017-Apr-21 04:30N 51°20' E 004°18'0 0.0
2017-Apr-21 03:46N 51°20' E 004°18'0 0.0
2017-Apr-21 03:24N 51°20' E 004°18'0 0.0
2017-Apr-21 02:51N 51°20' E 004°18'0 0.0
2017-Apr-21 02:25N 51°20' E 004°18'0 0.0
2017-Apr-21 02:00N 51°20' E 004°18'0 0.0
2017-Apr-21 00:35N 51°20' E 004°18'0 0.0
2017-Apr-21 00:20N 51°20' E 004°18'0 0.0
2017-Apr-20 23:55N 51°20' E 004°18'0 0.0
2017-Apr-20 23:23N 51°20' E 004°18'0 0.0
2017-Apr-20 22:39N 51°20' E 004°18'0 0.0
2017-Apr-20 22:25N 51°20' E 004°18'0 0.0
2017-Apr-20 21:56N 51°20' E 004°18'0 0.0
2017-Apr-20 21:27N 51°20' E 004°18'0 0.0
2017-Apr-20 20:07N 51°20' E 004°18'0 1.0
2017-Apr-20 20:00N 51°20' E 004°18'21 5.6
2017-Apr-20 16:14N 51°41' E 004°23'3 2.8
2017-Apr-20 15:06N 51°42' E 004°28'1 7.6
2017-Apr-20 14:55N 51°42' E 004°30'4 7.6
2017-Apr-20 14:27N 51°43' E 004°36'8 6.9
2017-Apr-20 13:20N 51°43' E 004°48'2 5.8
2017-Apr-20 12:58N 51°41' E 004°50'1 1.2
2017-Apr-20 12:27N 51°42' E 004°51'0 0.0
2017-Apr-20 11:44N 51°42' E 004°51'0 0.0
2017-Apr-20 11:23N 51°42' E 004°51'0 0.0
2017-Apr-20 10:53N 51°42' E 004°51'0 0.0
2017-Apr-20 09:13N 51°42' E 004°51'1 0.0
2017-Apr-19 08:30N 51°42' E 004°50'4 7.2
2017-Apr-19 08:00N 51°44' E 004°44'1 2.5
2017-Apr-19 07:30N 51°44' E 004°43'4 7.9
2017-Apr-19 07:00N 51°48' E 004°47'4 7.7
2017-Apr-19 06:30N 51°49' E 004°52'4 7.5
2017-Apr-19 06:00N 51°49' E 004°58'5 8.0
2017-Apr-19 05:23N 51°49' E 005°06'6 8.1
2017-Apr-19 04:41N 51°49' E 005°16'3 7.8
2017-Apr-19 04:21N 51°49' E 005°20'2 6.4
2017-Apr-19 03:57N 51°50' E 005°23'5 8.4
2017-Apr-19 03:24N 51°53' E 005°28'3 6.2
2017-Apr-19 02:57N 51°54' E 005°33'0 0.0
2017-Apr-19 02:28N 51°54' E 005°33'0 0.0
2017-Apr-19 01:32N 51°54' E 005°33'0 0.0
2017-Apr-19 01:23N 51°54' E 005°33'0 0.0
2017-Apr-19 00:45N 51°54' E 005°33'0 0.0
2017-Apr-19 00:17N 51°54' E 005°33'0 0.0
2017-Apr-18 23:21N 51°54' E 005°33'0 0.0
2017-Apr-18 22:57N 51°54' E 005°33'0 0.0
2017-Apr-18 22:19N 51°54' E 005°33'0 0.0
2017-Apr-18 21:52N 51°54' E 005°33'0 0.9
2017-Apr-18 21:27N 51°54' E 005°32'4 8.3
2017-Apr-18 20:59N 51°54' E 005°39'4 8.7
2017-Apr-18 20:30N 51°53' E 005°45'4 8.8
2017-Apr-18 20:00N 51°51' E 005°52'3 6.8
2017-Apr-18 19:30N 51°52' E 005°57'3 6.6
2017-Apr-18 19:00N 51°52' E 006°02'4 8.9
2017-Apr-18 18:30N 51°51' E 006°09'4 8.9
2017-Apr-18 18:00N 51°49' E 006°16'4 8.5
2017-Apr-18 17:30N 51°46' E 006°20'4 7.5
2017-Apr-18 17:00N 51°44' E 006°25'4 7.2
2017-Apr-18 16:26N 51°41' E 006°28'4 8.2
2017-Apr-18 16:00N 51°40' E 006°34'3 0.1
2017-Apr-17 14:26N 51°37' E 006°36'0 0.0
2017-Apr-17 13:07N 51°37' E 006°36'0 0.0
2017-Apr-17 03:06N 51°37' E 006°36'0 0.0
2017-Apr-17 00:51N 51°37' E 006°36'0 0.0
2017-Apr-16 15:01N 51°37' E 006°36'0 0.0
2017-Apr-16 14:38N 51°37' E 006°36'0 0.0
2017-Apr-15 11:49N 51°37' E 006°36'0 0.0
2017-Apr-15 11:23N 51°37' E 006°36'0 0.0
2017-Apr-15 10:59N 51°37' E 006°36'1 0.3
2017-Apr-15 08:27N 51°37' E 006°35'4 5.6
2017-Apr-15 07:48N 51°35' E 006°39'2 6.2
2017-Apr-15 07:30N 51°33' E 006°41'4 7.1
2017-Apr-15 07:00N 51°30' E 006°43'2 4.3
2017-Apr-15 06:30N 51°28' E 006°43'1 2.3
2017-Apr-15 06:00N 51°27' E 006°44'0 0.0
2017-Apr-15 05:31N 51°27' E 006°44'0 0.0
2017-Apr-15 05:00N 51°27' E 006°44'0 0.0
2017-Apr-15 04:30N 51°27' E 006°44'0 0.0
2017-Apr-15 04:00N 51°27' E 006°44'0 0.0
2017-Apr-15 03:30N 51°27' E 006°44'0 0.0
2017-Apr-15 03:00N 51°27' E 006°44'0 0.0
2017-Apr-15 02:30N 51°27' E 006°44'0 0.0
2017-Apr-15 02:00N 51°27' E 006°44'0 0.0
2017-Apr-15 01:30N 51°27' E 006°44'0 0.0
2017-Apr-15 01:00N 51°27' E 006°44'0 0.0
2017-Apr-15 00:30N 51°27' E 006°44'0 0.0
2017-Apr-15 00:00N 51°27' E 006°44'0 0.0
2017-Apr-14 23:31N 51°27' E 006°44'0 0.0
2017-Apr-14 23:00N 51°27' E 006°44'0 0.0
2017-Apr-14 22:30N 51°27' E 006°44'0 0.0
2017-Apr-14 22:00N 51°27' E 006°44'0 0.0
2017-Apr-14 21:30N 51°27' E 006°44'0 0.0
2017-Apr-14 21:00N 51°27' E 006°44'0 0.0
2017-Apr-14 20:30N 51°27' E 006°44'0 0.0
2017-Apr-14 20:00N 51°27' E 006°44'0 0.0
2017-Apr-14 19:31N 51°27' E 006°44'0 0.0
2017-Apr-14 19:00N 51°27' E 006°44'0 0.0
2017-Apr-14 18:31N 51°27' E 006°44'0 0.0
2017-Apr-14 18:00N 51°27' E 006°44'0 0.0
2017-Apr-14 17:30N 51°27' E 006°44'0 0.4
2017-Apr-14 17:00N 51°27' E 006°43'3 6.0
2017-Apr-14 16:30N 51°24' E 006°45'5 7.3
2017-Apr-14 15:52N 51°21' E 006°40'24 5.4
2017-Apr-14 11:30N 51°00' E 006°58'3 5.7
2017-Apr-14 10:58N 50°57' E 006°58'4 7.2
2017-Apr-14 10:28N 50°54' E 007°00'2 3.6
2017-Apr-14 09:59N 50°52' E 007°01'3 5.7
2017-Apr-14 09:30N 50°50' E 006°60'5 7.2
2017-Apr-14 08:52N 50°46' E 007°04'3 7.5
2017-Apr-14 08:29N 50°44' E 007°07'  
Track history (hours):
 
Tides and Currents Weather Stations Pressure Air Temp Water Temp Dewpoint Dewpoint Depression Visibility Wind Speed Wind Dir Waves Ship Positions

Love Boat

Last reported at 2017-Apr-23 01:33 UTC. Time now 2017-Apr-24 19:23 UTC.
Position N 50°41' E 007°11'.

Length 110 m; draft 2 m.

Type: Ship. MMSI: 205386190.

Date/timePositionNaut miles runAvg speedWind from/ knotsBaromVisibWave heightAir tempDewpointWater temp
2017-Apr-23 01:33N 50°41' E 007°11'0 4.4
2017-Apr-23 01:29N 50°41' E 007°11'3 4.4
2017-Apr-23 00:53N 50°43' E 007°08'1 3.8
2017-Apr-23 00:30N 50°44' E 007°07'2 3.7
2017-Apr-23 00:00N 50°46' E 007°05'2 4.5
2017-Apr-22 23:30N 50°47' E 007°02'2 3.8
2017-Apr-22 22:58N 50°49' E 007°02'2 3.5
2017-Apr-22 22:18N 50°51' E 006°59'1 4.3
2017-Apr-22 22:00N 50°52' E 007°01'2 4.1
2017-Apr-22 21:27N 50°53' E 007°03'2 4.0
2017-Apr-22 20:57N 50°54' E 006°60'2 4.0
2017-Apr-22 20:26N 50°56' E 006°58'2 4.4
2017-Apr-22 19:55N 50°58' E 006°60'13 3.4
2017-Apr-22 16:05N 51°10' E 006°51'2 4.2
2017-Apr-22 15:37N 51°09' E 006°49'1 5.4
2017-Apr-22 15:31N 51°09' E 006°48'2 4.5
2017-Apr-22 15:01N 51°11' E 006°48'2 4.7
2017-Apr-22 14:30N 51°11' E 006°44'3 2.9
2017-Apr-22 13:29N 51°14' E 006°46'8 3.6
2017-Apr-22 11:16N 51°21' E 006°40'2 3.6
2017-Apr-22 10:49N 51°22' E 006°41'1 4.7
2017-Apr-22 10:30N 51°23' E 006°43'2 4.5
2017-Apr-22 10:00N 51°25' E 006°45'2 4.5
2017-Apr-22 09:31N 51°27' E 006°43'2 3.7
2017-Apr-22 09:01N 51°28' E 006°42'2 3.2
2017-Apr-22 08:31N 51°30' E 006°43'2 3.5
2017-Apr-22 08:01N 51°31' E 006°42'2 4.2
2017-Apr-22 07:30N 51°33' E 006°41'4 3.3
2017-Apr-22 06:14N 51°36' E 006°36'3 4.6
2017-Apr-22 05:41N 51°39' E 006°36'1 5.0
2017-Apr-22 05:30N 51°39' E 006°35'3 5.0
2017-Apr-22 04:56N 51°40' E 006°31'3 4.6
2017-Apr-22 04:21N 51°42' E 006°28'2 4.9
2017-Apr-22 04:01N 51°43' E 006°26'2 4.1
2017-Apr-22 03:30N 51°45' E 006°25'2 5.0
2017-Apr-22 03:01N 51°45' E 006°21'3 5.5
2017-Apr-22 02:31N 51°48' E 006°19'3 5.9
2017-Apr-22 02:01N 51°49' E 006°15'3 5.2
2017-Apr-22 01:30N 51°50' E 006°11'3 5.3
2017-Apr-22 01:00N 51°51' E 006°07'3 6.0
2017-Apr-22 00:31N 51°52' E 006°03'2 4.7
2017-Apr-22 00:01N 51°52' E 005°59'2 4.2
2017-Apr-21 23:31N 51°52' E 005°56'3 5.1
2017-Apr-21 23:01N 51°51' E 005°52'3 5.2
2017-Apr-21 22:31N 51°52' E 005°49'3 5.7
2017-Apr-21 22:01N 51°53' E 005°44'3 5.6
2017-Apr-21 21:31N 51°54' E 005°40'3 5.7
2017-Apr-21 21:00N 51°54' E 005°35'3 5.5
2017-Apr-21 20:31N 51°53' E 005°31'17 5.1
2017-Apr-21 17:14N 51°50' E 005°05'2 6.9
2017-Apr-21 17:01N 51°49' E 005°02'4 7.7
2017-Apr-21 16:31N 51°50' E 004°56'2 4.9
2017-Apr-21 16:00N 51°49' E 004°53'3 6.9
2017-Apr-21 15:31N 51°48' E 004°47'4 7.7
2017-Apr-21 15:01N 51°45' E 004°44'3 6.9
2017-Apr-21 14:30N 51°43' E 004°39'9 6.1
2017-Apr-21 13:04N 51°41' E 004°25'16 6.1
2017-Apr-21 10:29N 51°27' E 004°14'3 3.7
2017-Apr-21 09:46N 51°25' E 004°14'5 7.0
2017-Apr-21 09:00N 51°20' E 004°18'0 0.2
2017-Apr-21 08:22N 51°20' E 004°19'0 0.0
2017-Apr-21 07:39N 51°20' E 004°19'0 0.0
2017-Apr-21 07:29N 51°20' E 004°19'0 0.0
2017-Apr-21 05:32N 51°20' E 004°18'0 0.1
2017-Apr-21 05:27N 51°20' E 004°18'0 0.0
2017-Apr-21 04:54N 51°20' E 004°18'0 0.0
2017-Apr-21 04:30N 51°20' E 004°18'0 0.0
2017-Apr-21 03:46N 51°20' E 004°18'0 0.0
2017-Apr-21 03:24N 51°20' E 004°18'0 0.0
2017-Apr-21 02:51N 51°20' E 004°18'0 0.0
2017-Apr-21 02:25N 51°20' E 004°18'0 0.0
2017-Apr-21 02:00N 51°20' E 004°18'0 0.0
2017-Apr-21 00:35N 51°20' E 004°18'0 0.0
2017-Apr-21 00:20N 51°20' E 004°18'0 0.0
2017-Apr-20 23:55N 51°20' E 004°18'0 0.0
2017-Apr-20 23:23N 51°20' E 004°18'0 0.0
2017-Apr-20 22:39N 51°20' E 004°18'0 0.0
2017-Apr-20 22:25N 51°20' E 004°18'0 0.0
2017-Apr-20 21:56N 51°20' E 004°18'0 0.0
2017-Apr-20 21:27N 51°20' E 004°18'0 0.0
2017-Apr-20 20:07N 51°20' E 004°18'0 1.0
2017-Apr-20 20:00N 51°20' E 004°18'21 5.6
2017-Apr-20 16:14N 51°41' E 004°23'3 2.8
2017-Apr-20 15:06N 51°42' E 004°28'1 7.6
2017-Apr-20 14:55N 51°42' E 004°30'4 7.6
2017-Apr-20 14:27N 51°43' E 004°36'8 6.9
2017-Apr-20 13:20N 51°43' E 004°48'2 5.8
2017-Apr-20 12:58N 51°41' E 004°50'1 1.2
2017-Apr-20 12:27N 51°42' E 004°51'0 0.0
2017-Apr-20 11:44N 51°42' E 004°51'0 0.0
2017-Apr-20 11:23N 51°42' E 004°51'0 0.0
2017-Apr-20 10:53N 51°42' E 004°51'0 0.0
2017-Apr-20 09:13N 51°42' E 004°51'1 0.0
2017-Apr-19 08:30N 51°42' E 004°50'4 7.2
2017-Apr-19 08:00N 51°44' E 004°44'1 2.5
2017-Apr-19 07:30N 51°44' E 004°43'4 7.9
2017-Apr-19 07:00N 51°48' E 004°47'4 7.7
2017-Apr-19 06:30N 51°49' E 004°52'4 7.5
2017-Apr-19 06:00N 51°49' E 004°58'5 8.0
2017-Apr-19 05:23N 51°49' E 005°06'6 8.1
2017-Apr-19 04:41N 51°49' E 005°16'3 7.8
2017-Apr-19 04:21N 51°49' E 005°20'2 6.4
2017-Apr-19 03:57N 51°50' E 005°23'5 8.4
2017-Apr-19 03:24N 51°53' E 005°28'3 6.2
2017-Apr-19 02:57N 51°54' E 005°33'0 0.0
2017-Apr-19 02:28N 51°54' E 005°33'0 0.0
2017-Apr-19 01:32N 51°54' E 005°33'0 0.0
2017-Apr-19 01:23N 51°54' E 005°33'0 0.0
2017-Apr-19 00:45N 51°54' E 005°33'0 0.0
2017-Apr-19 00:17N 51°54' E 005°33'0 0.0
2017-Apr-18 23:21N 51°54' E 005°33'0 0.0
2017-Apr-18 22:57N 51°54' E 005°33'0 0.0
2017-Apr-18 22:19N 51°54' E 005°33'0 0.0
2017-Apr-18 21:52N 51°54' E 005°33'0 0.9
2017-Apr-18 21:27N 51°54' E 005°32'4 8.3
2017-Apr-18 20:59N 51°54' E 005°39'4 8.7
2017-Apr-18 20:30N 51°53' E 005°45'4 8.8
2017-Apr-18 20:00N 51°51' E 005°52'3 6.8
2017-Apr-18 19:30N 51°52' E 005°57'3 6.6
2017-Apr-18 19:00N 51°52' E 006°02'4 8.9
2017-Apr-18 18:30N 51°51' E 006°09'4 8.9
2017-Apr-18 18:00N 51°49' E 006°16'4 8.5
2017-Apr-18 17:30N 51°46' E 006°20'4 7.5
2017-Apr-18 17:00N 51°44' E 006°25'4 7.2
2017-Apr-18 16:26N 51°41' E 006°28'4 8.2
2017-Apr-18 16:00N 51°40' E 006°34'3 0.1
2017-Apr-17 14:26N 51°37' E 006°36'0 0.0
2017-Apr-17 13:07N 51°37' E 006°36'0 0.0
2017-Apr-17 03:06N 51°37' E 006°36'0 0.0
2017-Apr-17 00:51N 51°37' E 006°36'0 0.0
2017-Apr-16 15:01N 51°37' E 006°36'0 0.0
2017-Apr-16 14:38N 51°37' E 006°36'0 0.0
2017-Apr-15 11:49N 51°37' E 006°36'0 0.0
2017-Apr-15 11:23N 51°37' E 006°36'0 0.0
2017-Apr-15 10:59N 51°37' E 006°36'1 0.3
2017-Apr-15 08:27N 51°37' E 006°35'4 5.6
2017-Apr-15 07:48N 51°35' E 006°39'2 6.2
2017-Apr-15 07:30N 51°33' E 006°41'4 7.1
2017-Apr-15 07:00N 51°30' E 006°43'2 4.3
2017-Apr-15 06:30N 51°28' E 006°43'1 2.3
2017-Apr-15 06:00N 51°27' E 006°44'0 0.0
2017-Apr-15 05:31N 51°27' E 006°44'0 0.0
2017-Apr-15 05:00N 51°27' E 006°44'0 0.0
2017-Apr-15 04:30N 51°27' E 006°44'0 0.0
2017-Apr-15 04:00N 51°27' E 006°44'0 0.0
2017-Apr-15 03:30N 51°27' E 006°44'0 0.0
2017-Apr-15 03:00N 51°27' E 006°44'0 0.0
2017-Apr-15 02:30N 51°27' E 006°44'0 0.0
2017-Apr-15 02:00N 51°27' E 006°44'0 0.0
2017-Apr-15 01:30N 51°27' E 006°44'0 0.0
2017-Apr-15 01:00N 51°27' E 006°44'0 0.0
2017-Apr-15 00:30N 51°27' E 006°44'0 0.0
2017-Apr-15 00:00N 51°27' E 006°44'0 0.0
2017-Apr-14 23:31N 51°27' E 006°44'0 0.0
2017-Apr-14 23:00N 51°27' E 006°44'0 0.0
2017-Apr-14 22:30N 51°27' E 006°44'0 0.0
2017-Apr-14 22:00N 51°27' E 006°44'0 0.0
2017-Apr-14 21:30N 51°27' E 006°44'0 0.0
2017-Apr-14 21:00N 51°27' E 006°44'0 0.0
2017-Apr-14 20:30N 51°27' E 006°44'0 0.0
2017-Apr-14 20:00N 51°27' E 006°44'0 0.0
2017-Apr-14 19:31N 51°27' E 006°44'0 0.0
2017-Apr-14 19:00N 51°27' E 006°44'0 0.0
2017-Apr-14 18:31N 51°27' E 006°44'0 0.0
2017-Apr-14 18:00N 51°27' E 006°44'0 0.0
2017-Apr-14 17:30N 51°27' E 006°44'0 0.4
2017-Apr-14 17:00N 51°27' E 006°43'3 6.0
2017-Apr-14 16:30N 51°24' E 006°45'5 7.3
2017-Apr-14 15:52N 51°21' E 006°40'24 5.4
2017-Apr-14 11:30N 51°00' E 006°58'3 5.7
2017-Apr-14 10:58N 50°57' E 006°58'4 7.2
2017-Apr-14 10:28N 50°54' E 007°00'2 3.6
2017-Apr-14 09:59N 50°52' E 007°01'3 5.7
2017-Apr-14 09:30N 50°50' E 006°60'5 7.2
2017-Apr-14 08:52N 50°46' E 007°04'3 7.5
2017-Apr-14 08:29N 50°44' E 007°07'  

Dump ship's entire track history